createdAt,value
2016-09-28T00:00:36.319Z,0
2016-09-28T00:01:35.702Z,0
2016-09-28T00:02:51.106Z,0
2016-09-28T00:03:36.188Z,0
2016-09-28T00:04:37.134Z,0
2016-09-28T00:05:50.588Z,0
2016-09-28T00:06:36.125Z,0
2016-09-28T00:07:35.668Z,0
2016-09-28T00:08:35.663Z,0
2016-09-28T00:09:35.651Z,0
2016-09-28T00:10:35.644Z,0
2016-09-28T00:11:35.640Z,0
2016-09-28T00:12:35.640Z,0
2016-09-28T00:13:35.628Z,0
2016-09-28T00:14:35.614Z,0
2016-09-28T00:15:35.614Z,0
2016-09-28T00:16:35.603Z,0
2016-09-28T00:17:35.592Z,0
2016-09-28T00:18:35.897Z,0
2016-09-28T00:19:35.590Z,0
2016-09-28T00:20:35.590Z,0
2016-09-28T00:21:35.580Z,0
2016-09-28T00:22:35.581Z,0
2016-09-28T00:23:35.572Z,0
2016-09-28T00:24:35.556Z,0
2016-09-28T00:25:35.551Z,0
2016-09-28T00:26:35.546Z,0
2016-09-28T00:27:35.541Z,0
2016-09-28T00:28:35.547Z,0
2016-09-28T00:29:35.530Z,0
2016-09-28T00:30:35.525Z,0
2016-09-28T00:31:35.520Z,0
2016-09-28T00:32:35.512Z,0
2016-09-28T00:33:35.502Z,0
2016-09-28T00:34:35.744Z,0
2016-09-28T00:35:35.488Z,0
2016-09-28T00:36:35.482Z,0
2016-09-28T00:37:35.490Z,0
2016-09-28T00:38:35.472Z,0
2016-09-28T00:39:35.713Z,0
2016-09-28T00:40:35.470Z,0
2016-09-28T00:41:35.444Z,0
2016-09-28T00:42:35.442Z,0
2016-09-28T00:43:35.435Z,0
2016-09-28T00:44:35.423Z,0
2016-09-28T00:45:35.422Z,0
2016-09-28T00:46:35.417Z,0
2016-09-28T00:47:35.418Z,0
2016-09-28T00:48:35.418Z,0
2016-09-28T00:49:35.394Z,0
2016-09-28T00:50:35.392Z,0
2016-09-28T00:51:35.383Z,0
2016-09-28T00:52:35.386Z,0
2016-09-28T00:53:35.378Z,0
2016-09-28T00:54:35.369Z,0
2016-09-28T00:55:35.362Z,0
2016-09-28T00:56:35.357Z,0
2016-09-28T00:57:35.352Z,0
2016-09-28T00:58:35.349Z,0
2016-09-28T00:59:35.346Z,0
2016-09-28T01:00:35.330Z,0
2016-09-28T01:01:35.320Z,0
2016-09-28T01:02:35.317Z,0
2016-09-28T01:03:38.465Z,0
2016-09-28T01:04:37.254Z,0
2016-09-28T01:05:35.979Z,0
2016-09-28T01:06:35.504Z,0
2016-09-28T01:07:35.287Z,0
2016-09-28T01:08:36.136Z,0
2016-09-28T01:09:35.276Z,0
2016-09-28T01:10:35.259Z,0
2016-09-28T01:11:50.940Z,0
2016-09-28T01:12:36.965Z,0
2016-09-28T01:13:35.598Z,0
2016-09-28T01:14:37.440Z,0
2016-09-28T01:15:37.526Z,0
2016-09-28T01:16:35.273Z,0
2016-09-28T01:17:35.496Z,0
2016-09-28T01:18:35.206Z,0
2016-09-28T01:19:35.208Z,0
2016-09-28T01:20:50.111Z,0
2016-09-28T01:21:35.346Z,0
2016-09-28T01:22:50.150Z,0
2016-09-28T01:24:35.936Z,0
2016-09-28T01:25:35.167Z,0
2016-09-28T01:26:35.159Z,0
2016-09-28T01:27:35.147Z,0
2016-09-28T01:28:35.150Z,0
2016-09-28T01:29:35.440Z,0
2016-09-28T01:30:35.129Z,0
2016-09-28T01:31:35.127Z,0
2016-09-28T01:32:35.116Z,0
2016-09-28T01:33:35.109Z,0
2016-09-28T01:34:35.109Z,0
2016-09-28T01:35:35.099Z,0
2016-09-28T01:36:35.097Z,0
2016-09-28T01:37:35.093Z,0
2016-09-28T01:38:35.082Z,0
2016-09-28T01:39:35.073Z,0
2016-09-28T01:40:35.077Z,0
2016-09-28T01:41:35.069Z,0
2016-09-28T01:42:35.045Z,0
2016-09-28T01:43:35.060Z,0
2016-09-28T01:44:35.052Z,0
2016-09-28T01:45:35.029Z,0
2016-09-28T01:46:35.029Z,0
2016-09-28T01:47:35.014Z,0
2016-09-28T01:48:35.012Z,0
2016-09-28T01:49:35.005Z,0
2016-09-28T01:50:35.003Z,0
2016-09-28T01:51:35.009Z,0
2016-09-28T01:52:35.007Z,0
2016-09-28T01:53:34.989Z,0
2016-09-28T01:54:34.974Z,0
2016-09-28T01:55:34.972Z,0
2016-09-28T01:56:34.961Z,0
2016-09-28T01:57:34.958Z,0
2016-09-28T01:58:34.947Z,0
2016-09-28T01:59:34.937Z,0
2016-09-28T02:00:34.934Z,0
2016-09-28T02:01:34.923Z,0
2016-09-28T02:02:34.929Z,0
2016-09-28T02:03:34.915Z,0
2016-09-28T02:04:34.898Z,0
2016-09-28T02:05:34.898Z,0
2016-09-28T02:06:34.893Z,0
2016-09-28T02:07:34.881Z,0
2016-09-28T02:08:34.876Z,0
2016-09-28T02:09:34.874Z,0
2016-09-28T02:10:34.870Z,0
2016-09-28T02:11:34.849Z,0
2016-09-28T02:12:34.850Z,0
2016-09-28T02:13:34.864Z,0
2016-09-28T02:14:34.841Z,0
2016-09-28T02:15:34.832Z,0
2016-09-28T02:16:34.818Z,0
2016-09-28T02:17:34.818Z,0
2016-09-28T02:18:34.808Z,0
2016-09-28T02:19:34.801Z,0
2016-09-28T02:20:34.790Z,0
2016-09-28T02:21:36.530Z,0
2016-09-28T02:22:36.053Z,0
2016-09-28T02:23:37.278Z,0
2016-09-28T02:24:34.971Z,0
2016-09-28T02:25:34.762Z,0
2016-09-28T02:26:34.751Z,0
2016-09-28T02:27:34.752Z,0
2016-09-28T02:28:34.851Z,0
2016-09-28T02:30:04.573Z,0
2016-09-28T02:31:38.006Z,0
2016-09-28T02:32:36.804Z,0
2016-09-28T02:33:36.800Z,0
2016-09-28T02:34:36.381Z,0
2016-09-28T02:35:35.446Z,0
2016-09-28T02:36:34.688Z,0
2016-09-28T02:37:34.679Z,0
2016-09-28T02:38:34.869Z,0
2016-09-28T02:39:49.586Z,0
2016-09-28T02:40:35.061Z,0
2016-09-28T02:41:49.565Z,0
2016-09-28T02:42:35.593Z,0
2016-09-28T02:43:34.644Z,0
2016-09-28T02:44:34.882Z,0
2016-09-28T02:45:34.740Z,0
2016-09-28T02:46:34.621Z,0
2016-09-28T02:47:34.611Z,0
2016-09-28T02:48:34.600Z,0
2016-09-28T02:49:34.599Z,0
2016-09-28T02:50:34.594Z,0
2016-09-28T02:51:34.583Z,0
2016-09-28T02:52:34.581Z,0
2016-09-28T02:53:34.574Z,0
2016-09-28T02:54:34.571Z,0
2016-09-28T02:55:34.549Z,0
2016-09-28T02:56:34.548Z,0
2016-09-28T02:57:34.544Z,0
2016-09-28T02:58:34.529Z,0
2016-09-28T02:59:34.534Z,0
2016-09-28T03:00:34.520Z,0
2016-09-28T03:01:34.512Z,0
2016-09-28T03:02:34.511Z,0
2016-09-28T03:03:34.505Z,0
2016-09-28T03:04:34.490Z,0
2016-09-28T03:05:34.493Z,0
2016-09-28T03:06:34.490Z,0
2016-09-28T03:07:34.475Z,0
2016-09-28T03:08:34.479Z,0
2016-09-28T03:09:34.465Z,0
2016-09-28T03:10:34.449Z,0
2016-09-28T03:11:34.448Z,0
2016-09-28T03:12:34.441Z,0
2016-09-28T03:13:34.428Z,0
2016-09-28T03:14:34.441Z,0
2016-09-28T03:15:34.427Z,0
2016-09-28T03:16:34.406Z,0
2016-09-28T03:17:34.407Z,0
2016-09-28T03:18:34.397Z,0
2016-09-28T03:19:34.391Z,0
2016-09-28T03:20:34.384Z,0
2016-09-28T03:21:34.384Z,0
2016-09-28T03:22:34.372Z,0
2016-09-28T03:23:34.365Z,0
2016-09-28T03:24:34.360Z,0
2016-09-28T03:25:34.348Z,0
2016-09-28T03:26:34.344Z,0
2016-09-28T03:27:34.346Z,0
2016-09-28T03:28:34.338Z,0
2016-09-28T03:29:34.329Z,0
2016-09-28T03:30:34.317Z,0
2016-09-28T03:31:34.610Z,0
2016-09-28T03:32:34.308Z,0
2016-09-28T03:33:34.296Z,0
2016-09-28T03:34:34.288Z,0
2016-09-28T03:35:34.292Z,0
2016-09-28T03:36:34.280Z,0
2016-09-28T03:37:34.268Z,0
2016-09-28T03:38:34.273Z,0
2016-09-28T03:39:35.083Z,0
2016-09-28T03:40:34.366Z,0
2016-09-28T03:41:35.752Z,0
2016-09-28T03:42:34.232Z,0
2016-09-28T03:43:34.226Z,0
2016-09-28T03:44:34.217Z,0
2016-09-28T03:45:34.382Z,0
2016-09-28T03:46:34.208Z,0
2016-09-28T03:48:38.353Z,0
2016-09-28T03:49:36.286Z,0
2016-09-28T03:50:34.627Z,0
2016-09-28T03:51:35.768Z,0
2016-09-28T03:52:35.661Z,0
2016-09-28T03:53:34.716Z,0
2016-09-28T03:54:34.159Z,0
2016-09-28T03:55:34.145Z,0
2016-09-28T03:56:34.480Z,0
2016-09-28T03:57:34.376Z,0
2016-09-28T03:58:34.226Z,0
2016-09-28T03:59:34.168Z,0
2016-09-28T04:00:35.111Z,0
2016-09-28T04:01:34.100Z,0
2016-09-28T04:02:34.098Z,0
2016-09-28T04:03:34.094Z,0
2016-09-28T04:04:34.087Z,0
2016-09-28T04:05:34.085Z,0
2016-09-28T04:06:34.072Z,0
2016-09-28T04:07:34.068Z,0
2016-09-28T04:08:34.051Z,0
2016-09-28T04:09:34.051Z,0
2016-09-28T04:10:34.042Z,0
2016-09-28T04:11:34.042Z,0
2016-09-28T04:12:34.031Z,0
2016-09-28T04:13:34.020Z,0
2016-09-28T04:14:34.012Z,0
2016-09-28T04:15:34.005Z,0
2016-09-28T04:16:34.250Z,0
2016-09-28T04:17:34.009Z,0
2016-09-28T04:18:33.980Z,0
2016-09-28T04:19:33.980Z,0
2016-09-28T04:20:33.974Z,0
2016-09-28T04:21:34.211Z,0
2016-09-28T04:22:33.959Z,0
2016-09-28T04:23:33.965Z,0
2016-09-28T04:24:33.941Z,0
2016-09-28T04:25:33.937Z,0
2016-09-28T04:26:34.177Z,4
2016-09-28T04:27:33.933Z,4
2016-09-28T04:28:33.918Z,4
2016-09-28T04:29:33.914Z,4
2016-09-28T04:30:33.904Z,4
2016-09-28T04:31:34.190Z,4
2016-09-28T04:32:33.885Z,8
2016-09-28T04:33:33.875Z,4
2016-09-28T04:34:33.873Z,8
2016-09-28T04:35:33.868Z,8
2016-09-28T04:36:33.857Z,8
2016-09-28T04:37:33.848Z,12
2016-09-28T04:38:33.842Z,16
2016-09-28T04:39:33.835Z,16
2016-09-28T04:40:33.830Z,20
2016-09-28T04:41:33.829Z,24
2016-09-28T04:42:33.824Z,32
2016-09-28T04:43:33.808Z,36
2016-09-28T04:44:33.809Z,44
2016-09-28T04:45:33.805Z,52
2016-09-28T04:46:33.793Z,60
2016-09-28T04:47:33.787Z,72
2016-09-28T04:48:33.789Z,84
2016-09-28T04:49:33.777Z,92
2016-09-28T04:50:33.770Z,108
2016-09-28T04:51:33.764Z,124
2016-09-28T04:52:33.757Z,140
2016-09-28T04:53:33.751Z,156
2016-09-28T04:54:33.736Z,176
2016-09-28T04:55:33.731Z,200
2016-09-28T04:56:33.728Z,228
2016-09-28T04:59:34.942Z,328
2016-09-28T05:00:33.699Z,356
2016-09-28T05:01:33.694Z,388
2016-09-28T05:02:33.695Z,420
2016-09-28T05:03:33.676Z,452
2016-09-28T05:04:33.672Z,492
2016-09-28T05:05:49.085Z,544
2016-09-28T05:06:50.267Z,592
2016-09-28T05:07:35.526Z,628
2016-09-28T05:08:49.317Z,692
2016-09-28T05:09:35.527Z,732
2016-09-28T05:10:33.631Z,788
2016-09-28T05:11:33.623Z,852
2016-09-28T05:12:34.135Z,924
2016-09-28T05:13:33.605Z,996
2016-09-28T05:14:35.056Z,1064
2016-09-28T05:16:33.941Z,1152
2016-09-28T05:17:35.332Z,1192
2016-09-28T05:18:33.579Z,1244
2016-09-28T05:19:34.420Z,1308
2016-09-28T05:20:33.867Z,1380
2016-09-28T05:21:33.756Z,1452
2016-09-28T05:22:33.548Z,1532
2016-09-28T05:23:33.545Z,1608
2016-09-28T05:24:33.541Z,1680
2016-09-28T05:25:33.532Z,1728
2016-09-28T05:26:33.522Z,1704
2016-09-28T05:27:33.521Z,1588
2016-09-28T05:28:33.515Z,1456
2016-09-28T05:29:33.511Z,1376
2016-09-28T05:30:33.507Z,1336
2016-09-28T05:31:33.494Z,1312
2016-09-28T05:32:33.488Z,1288
2016-09-28T05:33:33.483Z,1268
2016-09-28T05:34:33.472Z,1272
2016-09-28T05:35:33.468Z,1328
2016-09-28T05:36:33.455Z,1444
2016-09-28T05:37:33.462Z,1584
2016-09-28T05:38:33.450Z,1768
2016-09-28T05:39:33.442Z,1992
2016-09-28T05:40:33.443Z,2116
2016-09-28T05:41:33.431Z,2256
2016-09-28T05:42:33.426Z,2516
2016-09-28T05:43:33.417Z,2800
2016-09-28T05:44:33.416Z,2964
2016-09-28T05:45:33.414Z,3012
2016-09-28T05:46:33.401Z,2888
2016-09-28T05:47:33.389Z,2724
2016-09-28T05:48:33.387Z,2596
2016-09-28T05:49:33.382Z,2600
2016-09-28T05:50:33.371Z,2708
2016-09-28T05:51:33.374Z,2844
2016-09-28T05:52:33.370Z,2964
2016-09-28T05:53:33.367Z,3040
2016-09-28T05:54:33.363Z,3096
2016-09-28T05:55:33.351Z,3120
2016-09-28T05:56:33.341Z,3240
2016-09-28T05:57:33.341Z,3504
2016-09-28T05:58:33.336Z,4112
2016-09-28T05:59:33.328Z,5448
2016-09-28T06:00:33.323Z,5036
2016-09-28T06:01:33.319Z,4660
2016-09-28T06:02:33.317Z,4232
2016-09-28T06:03:33.315Z,4396
2016-09-28T06:04:33.296Z,4644
2016-09-28T06:05:33.300Z,4752
2016-09-28T06:06:33.394Z,4640
2016-09-28T06:07:33.281Z,4424
2016-09-28T06:08:33.280Z,4200
2016-09-28T06:09:33.283Z,4032
2016-09-28T06:10:33.266Z,3820
2016-09-28T06:11:33.269Z,3556
2016-09-28T06:12:33.269Z,3368
2016-09-28T06:13:33.554Z,3320
2016-09-28T06:14:33.267Z,3452
2016-09-28T06:16:36.165Z,4096
2016-09-28T06:17:34.922Z,4396
2016-09-28T06:18:33.686Z,4644
2016-09-28T06:19:34.368Z,4828
2016-09-28T06:20:33.237Z,4932
2016-09-28T06:21:33.895Z,5020
2016-09-28T06:22:33.225Z,5088
2016-09-28T06:23:48.126Z,5156
2016-09-28T06:24:50.796Z,5104
2016-09-28T06:26:36.425Z,4804
2016-09-28T06:27:34.775Z,4624
2016-09-28T06:28:35.008Z,4532
2016-09-28T06:29:33.287Z,4556
2016-09-28T06:30:33.180Z,4604
2016-09-28T06:31:33.390Z,4672
2016-09-28T06:32:34.036Z,4728
2016-09-28T06:33:33.690Z,4812
2016-09-28T06:35:48.436Z,5064
2016-09-28T06:36:33.618Z,5132
2016-09-28T06:37:33.263Z,5312
2016-09-28T06:38:33.153Z,5564
2016-09-28T06:39:33.305Z,5820
2016-09-28T06:40:33.150Z,6020
2016-09-28T06:41:33.143Z,6080
2016-09-28T06:42:33.137Z,6016
2016-09-28T06:43:33.135Z,6016
2016-09-28T06:44:33.133Z,5988
2016-09-28T06:45:33.128Z,5844
2016-09-28T06:46:33.143Z,5728
2016-09-28T06:47:33.125Z,5660
2016-09-28T06:48:33.118Z,5516
2016-09-28T06:49:33.109Z,5348
2016-09-28T06:50:33.111Z,5264
2016-09-28T06:51:33.110Z,5300
2016-09-28T06:52:33.103Z,5348
2016-09-28T06:53:33.103Z,5332
2016-09-28T06:54:33.090Z,5388
2016-09-28T06:55:33.094Z,5588
2016-09-28T06:56:33.090Z,5784
2016-09-28T06:57:33.092Z,5728
2016-09-28T06:58:33.087Z,5556
2016-09-28T06:59:33.082Z,5456
2016-09-28T07:00:33.077Z,5448
2016-09-28T07:01:33.070Z,5540
2016-09-28T07:02:33.074Z,5736
2016-09-28T07:03:33.064Z,5976
2016-09-28T07:04:33.062Z,6156
2016-09-28T07:05:33.060Z,6192
2016-09-28T07:06:33.053Z,6088
2016-09-28T07:07:33.345Z,5964
2016-09-28T07:08:33.051Z,5920
2016-09-28T07:09:33.044Z,5924
2016-09-28T07:10:33.035Z,6040
2016-09-28T07:11:33.037Z,6332
2016-09-28T07:12:33.032Z,6712
2016-09-28T07:13:33.026Z,6988
2016-09-28T07:14:33.022Z,7120
2016-09-28T07:15:33.022Z,7232
2016-09-28T07:16:33.016Z,7376
2016-09-28T07:17:33.017Z,7468
2016-09-28T07:18:33.012Z,7448
2016-09-28T07:19:33.012Z,7352
2016-09-28T07:20:33.012Z,7212
2016-09-28T07:21:33.014Z,7116
2016-09-28T07:22:33.000Z,7192
2016-09-28T07:23:32.990Z,7476
2016-09-28T07:24:33.001Z,7712
2016-09-28T07:25:32.999Z,7720
2016-09-28T07:26:32.989Z,7556
2016-09-28T07:27:32.981Z,7416
2016-09-28T07:28:32.975Z,7416
2016-09-28T07:29:32.976Z,7572
2016-09-28T07:30:32.971Z,7784
2016-09-28T07:31:32.972Z,7932
2016-09-28T07:32:32.973Z,8020
2016-09-28T07:33:34.899Z,8196
2016-09-28T07:34:35.537Z,8572
2016-09-28T07:35:32.964Z,9024
2016-09-28T07:36:34.953Z,9456
2016-09-28T07:37:32.964Z,9720
2016-09-28T07:38:33.377Z,9916
2016-09-28T07:39:32.950Z,10060
2016-09-28T07:40:32.939Z,10280
2016-09-28T07:41:33.244Z,10720
2016-09-28T07:42:35.148Z,11360
2016-09-28T07:43:36.619Z,12000
2016-09-28T07:44:33.533Z,12412
2016-09-28T07:45:35.828Z,12484
2016-09-28T07:46:33.937Z,12100
2016-09-28T07:47:34.354Z,11368
2016-09-28T07:48:32.925Z,10644
2016-09-28T07:49:32.923Z,10228
2016-09-28T07:51:33.980Z,10388
2016-09-28T07:53:48.338Z,11076
2016-09-28T07:54:33.720Z,11316
2016-09-28T07:55:33.460Z,11740
2016-09-28T07:56:32.956Z,12216
2016-09-28T07:57:32.912Z,12820
2016-09-28T07:58:33.159Z,13492
2016-09-28T07:59:32.910Z,14104
2016-09-28T08:00:32.903Z,14556
2016-09-28T08:01:32.911Z,14756
2016-09-28T08:02:32.907Z,14824
2016-09-28T08:03:33.145Z,14980
2016-09-28T08:04:32.893Z,15380
2016-09-28T08:05:32.906Z,15860
2016-09-28T08:06:32.890Z,16384
2016-09-28T08:07:32.892Z,16224
2016-09-28T08:08:33.134Z,16000
2016-09-28T08:09:32.885Z,15504
2016-09-28T08:10:32.883Z,15224
2016-09-28T08:11:32.882Z,14984
2016-09-28T08:12:32.889Z,15060
2016-09-28T08:13:32.903Z,15052
2016-09-28T08:14:32.886Z,15068
2016-09-28T08:15:32.905Z,15456
2016-09-28T08:16:32.883Z,15780
2016-09-28T08:17:32.876Z,16192
2016-09-28T08:18:32.882Z,16288
2016-09-28T08:19:32.883Z,16416
2016-09-28T08:20:32.873Z,16608
2016-09-28T08:21:32.877Z,16832
2016-09-28T08:22:32.877Z,16960
2016-09-28T08:23:32.877Z,17056
2016-09-28T08:24:32.871Z,17120
2016-09-28T08:25:32.885Z,17120
2016-09-28T08:26:32.871Z,17088
2016-09-28T08:27:32.882Z,16992
2016-09-28T08:28:32.871Z,16704
2016-09-28T08:29:32.878Z,16448
2016-09-28T08:30:32.875Z,16320
2016-09-28T08:31:32.876Z,16320
2016-09-28T08:32:32.869Z,16480
2016-09-28T08:33:32.876Z,16736
2016-09-28T08:34:32.877Z,17056
2016-09-28T08:35:33.180Z,17376
2016-09-28T08:36:32.874Z,17536
2016-09-28T08:37:32.889Z,17664
2016-09-28T08:38:32.874Z,17792
2016-09-28T08:39:32.885Z,17856
2016-09-28T08:40:32.883Z,17920
2016-09-28T08:41:32.883Z,17920
2016-09-28T08:42:32.879Z,17760
2016-09-28T08:43:32.875Z,17632
2016-09-28T08:44:32.885Z,17440
2016-09-28T08:45:33.179Z,17408
2016-09-28T08:46:32.880Z,17440
2016-09-28T08:47:32.887Z,17600
2016-09-28T08:48:32.887Z,17696
2016-09-28T08:49:32.883Z,17664
2016-09-28T08:50:32.884Z,17312
2016-09-28T08:51:36.369Z,16704
2016-09-28T08:52:33.320Z,16032
2016-09-28T08:53:34.127Z,15524
2016-09-28T08:54:33.342Z,15376
2016-09-28T08:55:34.350Z,15396
2016-09-28T08:56:32.896Z,15384
2016-09-28T08:57:32.887Z,15304
2016-09-28T08:58:33.200Z,15276
2016-09-28T08:59:33.859Z,15284
2016-09-28T09:00:34.767Z,15940
2016-09-28T09:01:49.644Z,16416
2016-09-28T09:02:34.974Z,16288
2016-09-28T09:04:32.907Z,16448
2016-09-28T09:05:33.235Z,16512
2016-09-28T09:06:32.995Z,16288
2016-09-28T09:07:32.898Z,15744
2016-09-28T09:09:33.454Z,14632
2016-09-28T09:11:33.160Z,14048
2016-09-28T09:12:33.864Z,15320
2016-09-28T09:13:34.105Z,16384
2016-09-28T09:14:33.105Z,17440
2016-09-28T09:15:32.916Z,18144
2016-09-28T09:16:32.916Z,18432
2016-09-28T09:17:32.917Z,18752
2016-09-28T09:18:33.223Z,18656
2016-09-28T09:19:32.923Z,18624
2016-09-28T09:20:32.925Z,18400
2016-09-28T09:21:32.925Z,18080
2016-09-28T09:22:32.921Z,17536
2016-09-28T09:23:32.922Z,16832
2016-09-28T09:24:32.924Z,16384
2016-09-28T09:25:32.930Z,15996
2016-09-28T09:26:32.936Z,16032
2016-09-28T09:27:32.934Z,16704
2016-09-28T09:28:32.936Z,17216
2016-09-28T09:29:32.939Z,17856
2016-09-28T09:30:32.934Z,19072
2016-09-28T09:31:32.943Z,19200
2016-09-28T09:32:32.941Z,18720
2016-09-28T09:33:32.945Z,17952
2016-09-28T09:34:32.952Z,17472
2016-09-28T09:35:32.945Z,15732
2016-09-28T09:36:32.959Z,14448
2016-09-28T09:37:32.956Z,13204
2016-09-28T09:38:32.959Z,12640
2016-09-28T09:39:32.957Z,11848
2016-09-28T09:40:32.967Z,11632
2016-09-28T09:41:32.959Z,12404
2016-09-28T09:42:32.962Z,13644
2016-09-28T09:43:32.970Z,17696
2016-09-28T09:44:32.964Z,20128
2016-09-28T09:45:32.983Z,19808
2016-09-28T09:46:32.976Z,20512
2016-09-28T09:47:32.993Z,22560
2016-09-28T09:48:32.981Z,22976
2016-09-28T09:49:32.981Z,23328
2016-09-28T09:50:32.987Z,22752
2016-09-28T09:51:32.988Z,22144
2016-09-28T09:52:32.986Z,22368
2016-09-28T09:53:32.995Z,20576
2016-09-28T09:54:33.009Z,18464
2016-09-28T09:55:33.301Z,16544
2016-09-28T09:56:32.997Z,13808
2016-09-28T09:57:32.994Z,12388
2016-09-28T09:58:33.009Z,11160
2016-09-28T09:59:33.009Z,10720
2016-09-28T10:00:33.006Z,11244
2016-09-28T10:01:33.014Z,12148
2016-09-28T10:02:33.020Z,13480
2016-09-28T10:03:33.017Z,15476
2016-09-28T10:04:33.318Z,16384
2016-09-28T10:05:33.029Z,15108
2016-09-28T10:06:33.023Z,14136
2016-09-28T10:07:33.036Z,15284
2016-09-28T10:08:33.040Z,16672
2016-09-28T10:09:35.225Z,16192
2016-09-28T10:11:34.210Z,12808
2016-09-28T10:12:33.737Z,13432
2016-09-28T10:13:33.041Z,12996
2016-09-28T10:14:33.166Z,13600
2016-09-28T10:15:33.114Z,13208
2016-09-28T10:16:33.052Z,13100
2016-09-28T10:17:48.974Z,14788
2016-09-28T10:18:49.354Z,15620
2016-09-28T10:20:49.577Z,17056
2016-09-28T10:21:34.965Z,15824
2016-09-28T10:22:33.901Z,14708
2016-09-28T10:23:34.437Z,12772
2016-09-28T10:24:33.375Z,10356
2016-09-28T10:25:33.084Z,8776
2016-09-28T10:27:02.915Z,8420
2016-09-28T10:27:48.004Z,8624
2016-09-28T10:29:33.782Z,8864
2016-09-28T10:30:34.048Z,7868
2016-09-28T10:31:34.253Z,8060
2016-09-28T10:32:33.101Z,8468
2016-09-28T10:33:33.103Z,9012
2016-09-28T10:34:33.098Z,10000
2016-09-28T10:35:33.102Z,10028
2016-09-28T10:36:33.116Z,11104
2016-09-28T10:37:33.108Z,10372
2016-09-28T10:38:33.122Z,11396
2016-09-28T10:39:33.113Z,10296
2016-09-28T10:40:33.112Z,8556
2016-09-28T10:41:33.111Z,8252
2016-09-28T10:42:33.119Z,9380
2016-09-28T10:43:33.119Z,11596
2016-09-28T10:44:33.114Z,11876
2016-09-28T10:45:33.117Z,13208
2016-09-28T10:46:33.118Z,14060
2016-09-28T10:47:33.132Z,12592
2016-09-28T10:48:33.126Z,11824
2016-09-28T10:49:33.126Z,12832
2016-09-28T10:50:33.131Z,13204
2016-09-28T10:51:33.130Z,13012
2016-09-28T10:52:33.129Z,11996
2016-09-28T10:53:33.133Z,12228
2016-09-28T10:54:33.139Z,11748
2016-09-28T10:55:33.137Z,11932
2016-09-28T10:56:33.135Z,11812
2016-09-28T10:57:33.136Z,11212
2016-09-28T10:58:33.146Z,10452
2016-09-28T10:59:33.147Z,9072
2016-09-28T11:00:33.151Z,8836
2016-09-28T11:01:33.152Z,9600
2016-09-28T11:02:33.151Z,10248
2016-09-28T11:03:33.152Z,10732
2016-09-28T11:04:33.149Z,10872
2016-09-28T11:05:33.158Z,10072
2016-09-28T11:06:33.159Z,9864
2016-09-28T11:07:33.153Z,10328
2016-09-28T11:08:33.159Z,10876
2016-09-28T11:09:33.159Z,11124
2016-09-28T11:10:33.167Z,9784
2016-09-28T11:11:33.170Z,10200
2016-09-28T11:12:33.162Z,11912
2016-09-28T11:13:33.167Z,12336
2016-09-28T11:14:33.173Z,10148
2016-09-28T11:15:33.170Z,9116
2016-09-28T11:16:33.173Z,8800
2016-09-28T11:17:33.176Z,9100
2016-09-28T11:18:33.171Z,9492
2016-09-28T11:19:33.194Z,10060
2016-09-28T11:20:33.187Z,10404
2016-09-28T11:21:33.176Z,10464
2016-09-28T11:22:33.179Z,10440
2016-09-28T11:23:33.181Z,9868
2016-09-28T11:24:33.185Z,9692
2016-09-28T11:25:33.191Z,10160
2016-09-28T11:26:33.185Z,10108
2016-09-28T11:27:34.717Z,11520
2016-09-28T11:28:34.752Z,11596
2016-09-28T11:29:35.849Z,11532
2016-09-28T11:30:35.410Z,11524
2016-09-28T11:31:33.952Z,11592
2016-09-28T11:32:33.193Z,12428
2016-09-28T11:33:33.202Z,13628
2016-09-28T11:34:33.196Z,16384
2016-09-28T11:35:49.405Z,19296
2016-09-28T11:37:35.731Z,20064
2016-09-28T11:38:48.734Z,22688
2016-09-28T11:39:34.392Z,24896
2016-09-28T11:40:33.303Z,24960
2016-09-28T11:41:33.973Z,23488
2016-09-28T11:42:33.514Z,21792
2016-09-28T11:43:33.213Z,20192
2016-09-28T11:44:34.874Z,18496
2016-09-28T11:45:48.133Z,17152
2016-09-28T11:46:34.037Z,16896
2016-09-28T11:47:33.931Z,16832
2016-09-28T11:48:33.326Z,16992
2016-09-28T11:49:33.679Z,17344
2016-09-28T11:50:33.677Z,17312
2016-09-28T11:51:33.236Z,17088
2016-09-28T11:52:33.242Z,17984
2016-09-28T11:53:33.241Z,18496
2016-09-28T11:54:33.248Z,19296
2016-09-28T11:55:33.246Z,20064
2016-09-28T11:56:33.250Z,19968
2016-09-28T11:57:33.250Z,19840
2016-09-28T11:58:33.256Z,19712
2016-09-28T11:59:33.258Z,19680
2016-09-28T12:00:33.262Z,19808
2016-09-28T12:01:33.272Z,19328
2016-09-28T12:02:33.273Z,19456
2016-09-28T12:03:33.482Z,20256
2016-09-28T12:04:33.287Z,21376
2016-09-28T12:05:33.280Z,21824
2016-09-28T12:06:33.289Z,21728
2016-09-28T12:07:33.286Z,21440
2016-09-28T12:08:33.307Z,20608
2016-09-28T12:09:33.295Z,19200
2016-09-28T12:10:33.299Z,17984
2016-09-28T12:11:33.598Z,16992
2016-09-28T12:12:33.315Z,16160
2016-09-28T12:13:33.313Z,15576
2016-09-28T12:14:33.321Z,15548
2016-09-28T12:15:33.325Z,15956
2016-09-28T12:16:33.335Z,16512
2016-09-28T12:17:33.336Z,16672
2016-09-28T12:18:33.341Z,16576
2016-09-28T12:19:33.339Z,16512
2016-09-28T12:20:33.344Z,16384
2016-09-28T12:21:33.358Z,16320
2016-09-28T12:22:33.354Z,16384
2016-09-28T12:23:33.363Z,16320
2016-09-28T12:24:33.366Z,16224
2016-09-28T12:25:33.374Z,15816
2016-09-28T12:26:33.360Z,15512
2016-09-28T12:27:33.683Z,15240
2016-09-28T12:28:33.371Z,15032
2016-09-28T12:29:33.380Z,14948
2016-09-28T12:30:33.379Z,14868
2016-09-28T12:31:33.384Z,14772
2016-09-28T12:32:33.389Z,14732
2016-09-28T12:33:33.398Z,14804
2016-09-28T12:34:33.388Z,14944
2016-09-28T12:35:33.401Z,14904
2016-09-28T12:36:33.410Z,14832
2016-09-28T12:37:33.416Z,14880
2016-09-28T12:38:33.414Z,14980
2016-09-28T12:39:33.421Z,15064
2016-09-28T12:40:33.729Z,15192
2016-09-28T12:41:33.436Z,15376
2016-09-28T12:42:33.424Z,15568
2016-09-28T12:43:33.439Z,15756
2016-09-28T12:44:33.433Z,15844
2016-09-28T12:45:35.524Z,15864
2016-09-28T12:46:37.073Z,15916
2016-09-28T12:47:34.997Z,15900
2016-09-28T12:48:34.919Z,15752
2016-09-28T12:49:33.676Z,15480
2016-09-28T12:50:33.457Z,15136
2016-09-28T12:51:33.461Z,14988
2016-09-28T12:52:33.474Z,14856
2016-09-28T12:53:48.386Z,14716
2016-09-28T12:54:49.503Z,14776
2016-09-28T12:55:34.694Z,14872
2016-09-28T12:56:36.500Z,15000
2016-09-28T12:57:33.580Z,15172
2016-09-28T12:58:35.268Z,15276
2016-09-28T12:59:34.103Z,15352
2016-09-28T13:00:34.407Z,15392
2016-09-28T13:01:33.506Z,15424
2016-09-28T13:03:34.410Z,15576
2016-09-28T13:05:34.312Z,15804
2016-09-28T13:06:48.523Z,15748
2016-09-28T13:07:33.516Z,15652
2016-09-28T13:08:33.519Z,15400
2016-09-28T13:09:33.768Z,15036
2016-09-28T13:10:33.524Z,14628
2016-09-28T13:11:33.536Z,14052
2016-09-28T13:12:33.546Z,13672
2016-09-28T13:13:33.549Z,13460
2016-09-28T13:14:33.841Z,13444
2016-09-28T13:15:33.545Z,13516
2016-09-28T13:16:33.548Z,13672
2016-09-28T13:17:33.559Z,13896
2016-09-28T13:18:33.554Z,14072
2016-09-28T13:19:33.568Z,14152
2016-09-28T13:20:33.560Z,14112
2016-09-28T13:21:33.576Z,13916
2016-09-28T13:22:33.572Z,13748
2016-09-28T13:23:33.575Z,13648
2016-09-28T13:24:33.574Z,13576
2016-09-28T13:25:33.571Z,13508
2016-09-28T13:26:33.597Z,13420
2016-09-28T13:27:33.583Z,13324
2016-09-28T13:28:33.601Z,13192
2016-09-28T13:29:33.595Z,13048
2016-09-28T13:30:33.590Z,12920
2016-09-28T13:31:33.595Z,12836
2016-09-28T13:32:33.609Z,12748
2016-09-28T13:33:33.600Z,12668
2016-09-28T13:34:33.608Z,12656
2016-09-28T13:35:33.608Z,12684
2016-09-28T13:36:33.616Z,12732
2016-09-28T13:37:33.609Z,12788
2016-09-28T13:38:33.609Z,12748
2016-09-28T13:39:33.614Z,12624
2016-09-28T13:40:33.629Z,12552
2016-09-28T13:41:33.627Z,12496
2016-09-28T13:42:33.628Z,12524
2016-09-28T13:43:33.636Z,12556
2016-09-28T13:44:33.633Z,12500
2016-09-28T13:45:33.638Z,12484
2016-09-28T13:46:33.636Z,12400
2016-09-28T13:47:33.639Z,12240
2016-09-28T13:48:33.941Z,11988
2016-09-28T13:49:33.656Z,11732
2016-09-28T13:50:33.649Z,11520
2016-09-28T13:51:33.671Z,11300
2016-09-28T13:52:33.658Z,11116
2016-09-28T13:53:33.655Z,10952
2016-09-28T13:54:33.664Z,10816
2016-09-28T13:55:33.657Z,10756